Terminal Aerodrome Forecast
Issued by NWS Mt. Holly, NJ

Home | Current Version | Previous Version | Text Only | Print | Product List | Glossary On
Versions: 1 2 3 4 5 6 7 8 9 10 11 12 13 14 15 16 17 18 19 20 21
675
FTUS41 KPHI 200357 AAB
TAFRDG
TAF AMD
KRDG 200357Z 2004/2024 VRB03KT 3SM BR SCT002
      TEMPO 2004/2008 1SM BR BKN002
     FM201200 31005KT 5SM BR SCT250
     FM201500 30007KT P6SM SCT250=

USA.gov is the U.S. government's official web portal to all federal, state and local government web resources and services.